Aviation Digital Data Service (ADDS)

Output produced by TAFs form (1130 UTC 19 January 2018)
found at http://www.aviationweather.gov/adds/tafs/
 
RJBB 191100Z 06008KT CAVOK 09/02 Q1018 NOSIG
TAF RJBB 191105Z 1912/2018 07008KT 9999 FEW030 
     BECMG 2000/2003 30006KT 
     BECMG 2009/2012 04007KT